createdAt,value
2018-09-12T00:00:03.268Z,21.2777777778
2018-09-12T00:00:15.679Z,21.2222222222
2018-09-12T00:00:28.113Z,21.2777777778
2018-09-12T00:00:40.535Z,21.2222222222
2018-09-12T00:00:52.946Z,21.2222222222
2018-09-12T00:01:05.361Z,21.2222222222
2018-09-12T00:01:17.847Z,21.2222222222
2018-09-12T00:01:30.242Z,21.2777777778
2018-09-12T00:01:42.651Z,21.2222222222
2018-09-12T00:01:55.113Z,21.2222222222
2018-09-12T00:02:07.523Z,21.2222222222
2018-09-12T00:02:19.914Z,21.2222222222
2018-09-12T00:02:32.350Z,21.2222222222
2018-09-12T00:02:44.761Z,21.2222222222
2018-09-12T00:02:57.162Z,21.2222222222
2018-09-12T00:03:09.578Z,21.2222222222
2018-09-12T00:03:22.446Z,21.2222222222
2018-09-12T00:03:35.258Z,21.2222222222
2018-09-12T00:03:47.642Z,21.2222222222
2018-09-12T00:04:00.061Z,21.2222222222
2018-09-12T00:04:12.453Z,21.1666666667
2018-09-12T00:04:24.858Z,21.1666666667
2018-09-12T00:04:37.252Z,21.1666666667
2018-09-12T00:04:49.662Z,21.1666666667
2018-09-12T00:05:02.071Z,21.2222222222
2018-09-12T00:05:14.501Z,21.1666666667
2018-09-12T00:05:26.920Z,21.1666666667
2018-09-12T00:05:39.327Z,21.1666666667
2018-09-12T00:05:51.736Z,21.1666666667
2018-09-12T00:06:04.144Z,21.1666666667
2018-09-12T00:06:16.602Z,21.1666666667
2018-09-12T00:06:29.000Z,21.1666666667
2018-09-12T00:06:41.412Z,21.1666666667
2018-09-12T00:06:53.812Z,21.1666666667
2018-09-12T00:07:06.216Z,21.1666666667
2018-09-12T00:07:18.647Z,21.1666666667
2018-09-12T00:07:31.053Z,21.1666666667
2018-09-12T00:07:43.455Z,21.1111111111
2018-09-12T00:07:55.888Z,21.1666666667
2018-09-12T00:08:08.316Z,21.1111111111
2018-09-12T00:08:20.731Z,21.1666666667
2018-09-12T00:08:33.427Z,21.1111111111
2018-09-12T00:08:45.835Z,21.1111111111
2018-09-12T00:08:58.242Z,21.1111111111
2018-09-12T00:09:10.635Z,21.1111111111
2018-09-12T00:09:23.048Z,21.1111111111
2018-09-12T00:09:35.459Z,21.1111111111
2018-09-12T00:09:47.845Z,21.1111111111
2018-09-12T00:10:00.234Z,21.1111111111
2018-09-12T00:10:12.627Z,21.1111111111
2018-09-12T00:10:25.493Z,21.0555555556
2018-09-12T00:10:37.893Z,21.1111111111
2018-09-12T00:10:50.288Z,21.1111111111
2018-09-12T00:11:02.685Z,21.0555555556
2018-09-12T00:11:15.077Z,21.0555555556
2018-09-12T00:11:27.473Z,21.0555555556
2018-09-12T00:11:40.056Z,21.0555555556
2018-09-12T00:11:52.534Z,21.1111111111
2018-09-12T00:12:04.928Z,21.1111111111
2018-09-12T00:12:17.348Z,21.0555555556
2018-09-12T00:12:29.751Z,21.0555555556
2018-09-12T00:12:42.148Z,21.0555555556
2018-09-12T00:12:54.539Z,21.0555555556
2018-09-12T00:13:06.948Z,21.0555555556
2018-09-12T00:13:19.349Z,21.0555555556
2018-09-12T00:13:31.742Z,21.0555555556
2018-09-12T00:13:44.159Z,21.0555555556
2018-09-12T00:13:56.678Z,21.0555555556
2018-09-12T00:14:09.083Z,21.0555555556
2018-09-12T00:14:21.472Z,21
2018-09-12T00:14:33.857Z,21.0555555556
2018-09-12T00:14:46.293Z,21.0555555556
2018-09-12T00:14:58.704Z,21
2018-09-12T00:15:11.131Z,21
2018-09-12T00:15:23.533Z,21
2018-09-12T00:15:35.921Z,21.0555555556
2018-09-12T00:15:48.323Z,21
2018-09-12T00:16:00.730Z,21
2018-09-12T00:16:13.163Z,21
2018-09-12T00:16:25.566Z,21
2018-09-12T00:16:37.956Z,21
2018-09-12T00:16:50.338Z,20.9444444444
2018-09-12T00:17:02.747Z,21
2018-09-12T00:17:15.137Z,21
2018-09-12T00:17:27.532Z,20.9444444444
2018-09-12T00:17:40.113Z,20.9444444444
2018-09-12T00:17:52.506Z,21
2018-09-12T00:18:04.913Z,20.9444444444
2018-09-12T00:18:17.321Z,21
2018-09-12T00:18:29.840Z,21
2018-09-12T00:18:42.269Z,20.9444444444
2018-09-12T00:18:54.674Z,20.9444444444
2018-09-12T00:19:07.072Z,20.9444444444
2018-09-12T00:19:19.473Z,20.9444444444
2018-09-12T00:19:31.852Z,20.9444444444
2018-09-12T00:19:44.240Z,20.9444444444
2018-09-12T00:19:56.650Z,20.9444444444
2018-09-12T00:20:09.066Z,20.9444444444
2018-09-12T00:20:21.479Z,20.9444444444
2018-09-12T00:20:33.881Z,20.9444444444
2018-09-12T00:20:46.288Z,20.9444444444
2018-09-12T00:20:58.978Z,20.8888888889
2018-09-12T00:21:12.236Z,20.8888888889
2018-09-12T00:21:25.772Z,20.9444444444
2018-09-12T00:21:38.183Z,20.9444444444
2018-09-12T00:21:50.598Z,20.8888888889
2018-09-12T00:22:03.024Z,20.8888888889
2018-09-12T00:22:15.422Z,20.8888888889
2018-09-12T00:22:27.819Z,20.8888888889
2018-09-12T00:22:40.239Z,20.8888888889
2018-09-12T00:22:52.633Z,20.8888888889
2018-09-12T00:23:05.034Z,20.8333333333
2018-09-12T00:23:17.542Z,20.8333333333
2018-09-12T00:23:29.951Z,20.8333333333
2018-09-12T00:23:42.352Z,20.8888888889
2018-09-12T00:23:54.939Z,20.8888888889
2018-09-12T00:24:07.425Z,20.8333333333
2018-09-12T00:24:19.829Z,20.8333333333
2018-09-12T00:24:32.593Z,20.8333333333
2018-09-12T00:24:45.031Z,20.8333333333
2018-09-12T00:24:57.452Z,20.8333333333
2018-09-12T00:25:09.994Z,20.8333333333
2018-09-12T00:25:22.413Z,20.8333333333
2018-09-12T00:25:35.019Z,20.8333333333
2018-09-12T00:25:47.425Z,20.8333333333
2018-09-12T00:25:59.830Z,20.8333333333
2018-09-12T00:26:12.252Z,20.7777777778
2018-09-12T00:26:24.680Z,20.8333333333
2018-09-12T00:26:37.095Z,20.8333333333
2018-09-12T00:26:49.492Z,20.8333333333
2018-09-12T00:27:01.943Z,20.8333333333
2018-09-12T00:27:14.350Z,20.7777777778
2018-09-12T00:27:26.772Z,20.7777777778
2018-09-12T00:27:39.177Z,20.7777777778
2018-09-12T00:27:51.603Z,20.7777777778
2018-09-12T00:28:04.013Z,20.7777777778
2018-09-12T00:28:16.418Z,20.7777777778
2018-09-12T00:28:28.803Z,20.7777777778
2018-09-12T00:28:41.198Z,20.7777777778
2018-09-12T00:28:53.602Z,20.7777777778
2018-09-12T00:29:05.990Z,20.7777777778
2018-09-12T00:29:18.402Z,20.7222222222
2018-09-12T00:29:30.807Z,20.7222222222
2018-09-12T00:29:43.376Z,20.7222222222
2018-09-12T00:29:55.766Z,20.7222222222
2018-09-12T00:30:08.163Z,20.7222222222
2018-09-12T00:30:20.603Z,20.7222222222
2018-09-12T00:30:32.998Z,20.7222222222
2018-09-12T00:30:45.405Z,20.7222222222
2018-09-12T00:30:57.842Z,20.7222222222
2018-09-12T00:31:10.227Z,20.7222222222
2018-09-12T00:31:22.884Z,20.6666666667
2018-09-12T00:31:35.280Z,20.7222222222
2018-09-12T00:31:47.681Z,20.6666666667
2018-09-12T00:32:00.087Z,20.6666666667
2018-09-12T00:32:12.497Z,20.6666666667
2018-09-12T00:32:24.900Z,20.6666666667
2018-09-12T00:32:37.375Z,20.6666666667
2018-09-12T00:32:49.780Z,20.6666666667
2018-09-12T00:33:02.207Z,20.6666666667
2018-09-12T00:33:14.660Z,20.6666666667
2018-09-12T00:33:27.056Z,20.6666666667
2018-09-12T00:33:39.498Z,20.6666666667
2018-09-12T00:33:51.905Z,20.6666666667
2018-09-12T00:34:04.310Z,20.6666666667
2018-09-12T00:34:16.711Z,20.6666666667
2018-09-12T00:34:29.122Z,20.6666666667
2018-09-12T00:34:41.537Z,20.6666666667
2018-09-12T00:34:53.920Z,20.6666666667
2018-09-12T00:35:06.314Z,20.6111111111
2018-09-12T00:35:18.700Z,20.6666666667
2018-09-12T00:35:31.102Z,20.6666666667
2018-09-12T00:35:43.499Z,20.6666666667
2018-09-12T00:35:55.902Z,20.6666666667
2018-09-12T00:36:08.319Z,20.6666666667
2018-09-12T00:36:20.850Z,20.6111111111
2018-09-12T00:36:33.269Z,20.6111111111
2018-09-12T00:36:45.681Z,20.6111111111
2018-09-12T00:36:58.086Z,20.6111111111
2018-09-12T00:37:10.521Z,20.6111111111
2018-09-12T00:37:23.212Z,20.5555555556
2018-09-12T00:37:35.633Z,20.6111111111
2018-09-12T00:37:48.083Z,20.6111111111
2018-09-12T00:38:00.483Z,20.5555555556
2018-09-12T00:38:12.887Z,20.5555555556
2018-09-12T00:38:25.330Z,20.5555555556
2018-09-12T00:38:37.732Z,20.5555555556
2018-09-12T00:38:50.144Z,20.5555555556
2018-09-12T00:39:02.544Z,20.5555555556
2018-09-12T00:39:14.988Z,20.5555555556
2018-09-12T00:39:27.399Z,20.5555555556
2018-09-12T00:39:39.785Z,20.5555555556
2018-09-12T00:39:52.234Z,20.5555555556
2018-09-12T00:40:04.627Z,20.5
2018-09-12T00:40:17.038Z,20.5555555556
2018-09-12T00:40:29.458Z,20.5555555556
2018-09-12T00:40:41.855Z,20.5
2018-09-12T00:40:54.282Z,20.5
2018-09-12T00:41:06.767Z,20.5
2018-09-12T00:41:19.159Z,20.5
2018-09-12T00:41:31.552Z,20.5
2018-09-12T00:41:43.979Z,20.4444444444
2018-09-12T00:41:56.372Z,20.5
2018-09-12T00:42:08.771Z,20.5
2018-09-12T00:42:21.218Z,20.5
2018-09-12T00:42:33.624Z,20.5
2018-09-12T00:42:46.056Z,20.5
2018-09-12T00:42:58.450Z,20.5
2018-09-12T00:43:10.844Z,20.5
2018-09-12T00:43:23.253Z,20.4444444444
2018-09-12T00:43:35.685Z,20.5
2018-09-12T00:43:48.082Z,20.5
2018-09-12T00:44:00.484Z,20.5
2018-09-12T00:44:12.879Z,20.5
2018-09-12T00:44:25.313Z,20.5
2018-09-12T00:44:37.725Z,20.4444444444
2018-09-12T00:44:50.111Z,20.4444444444
2018-09-12T00:45:02.537Z,20.4444444444
2018-09-12T00:45:14.929Z,20.4444444444
2018-09-12T00:45:27.327Z,20.5
2018-09-12T00:45:39.730Z,20.4444444444
2018-09-12T00:45:52.147Z,20.4444444444
2018-09-12T00:46:04.543Z,20.4444444444
2018-09-12T00:46:16.945Z,20.4444444444
2018-09-12T00:46:29.347Z,20.5
2018-09-12T00:46:42.034Z,20.4444444444
2018-09-12T00:46:54.438Z,20.4444444444
2018-09-12T00:47:06.857Z,20.4444444444
2018-09-12T00:47:19.253Z,20.4444444444
2018-09-12T00:47:31.643Z,20.4444444444
2018-09-12T00:47:44.049Z,20.4444444444
2018-09-12T00:47:56.447Z,20.4444444444
2018-09-12T00:48:08.875Z,20.4444444444
2018-09-12T00:48:21.280Z,20.4444444444
2018-09-12T00:48:33.754Z,20.3888888889
2018-09-12T00:48:46.144Z,20.4444444444
2018-09-12T00:48:58.549Z,20.3888888889
2018-09-12T00:49:10.973Z,20.3888888889
2018-09-12T00:49:23.629Z,20.4444444444
2018-09-12T00:49:36.045Z,20.3888888889
2018-09-12T00:49:48.448Z,20.3888888889
2018-09-12T00:50:00.956Z,20.3888888889
2018-09-12T00:50:13.491Z,20.3888888889
2018-09-12T00:50:25.879Z,20.3888888889
2018-09-12T00:50:38.339Z,20.3888888889
2018-09-12T00:50:50.744Z,20.3888888889
2018-09-12T00:51:03.153Z,20.3888888889
2018-09-12T00:51:15.556Z,20.3888888889
2018-09-12T00:51:27.995Z,20.3888888889
2018-09-12T00:51:40.405Z,20.3888888889
2018-09-12T00:51:52.807Z,20.3888888889
2018-09-12T00:52:05.216Z,20.3888888889
2018-09-12T00:52:17.625Z,20.3888888889
2018-09-12T00:52:30.053Z,20.3888888889
2018-09-12T00:52:42.444Z,20.3333333333
2018-09-12T00:52:54.839Z,20.3888888889
2018-09-12T00:53:07.290Z,20.3888888889
2018-09-12T00:53:19.677Z,20.3333333333
2018-09-12T00:53:32.076Z,20.3888888889
2018-09-12T00:53:44.474Z,20.3333333333
2018-09-12T00:53:56.877Z,20.3333333333
2018-09-12T00:54:09.289Z,20.3333333333
2018-09-12T00:54:21.701Z,20.3888888889
2018-09-12T00:54:34.142Z,20.3333333333
2018-09-12T00:54:46.562Z,20.3333333333
2018-09-12T00:54:59.031Z,20.3888888889
2018-09-12T00:55:11.433Z,20.3333333333
2018-09-12T00:55:23.830Z,20.3333333333
2018-09-12T00:55:36.238Z,20.3333333333
2018-09-12T00:55:48.635Z,20.3333333333
2018-09-12T00:56:01.329Z,20.3333333333
2018-09-12T00:56:13.744Z,20.3333333333
2018-09-12T00:56:26.143Z,20.3333333333
2018-09-12T00:56:38.537Z,20.2777777778
2018-09-12T00:56:51.012Z,20.3333333333
2018-09-12T00:57:03.484Z,20.3333333333
2018-09-12T00:57:15.909Z,20.2777777778
2018-09-12T00:57:28.311Z,20.2777777778
2018-09-12T00:57:40.726Z,20.3333333333
2018-09-12T00:57:53.131Z,20.3333333333
2018-09-12T00:58:05.619Z,20.2777777778
2018-09-12T00:58:18.021Z,20.2777777778
2018-09-12T00:58:30.438Z,20.2777777778
2018-09-12T00:58:42.866Z,20.2777777778
2018-09-12T00:58:55.263Z,20.2777777778
2018-09-12T00:59:07.673Z,20.3333333333
2018-09-12T00:59:20.278Z,20.2777777778
2018-09-12T00:59:32.731Z,20.2777777778
2018-09-12T00:59:45.166Z,20.2777777778
2018-09-12T00:59:57.604Z,20.2777777778
2018-09-12T01:00:10.080Z,20.2777777778
2018-09-12T01:00:22.639Z,20.3333333333
2018-09-12T01:00:35.070Z,20.2777777778
2018-09-12T01:00:47.505Z,20.2777777778
2018-09-12T01:00:59.915Z,20.2777777778
2018-09-12T01:01:12.328Z,20.2777777778
2018-09-12T01:01:24.746Z,20.2777777778
2018-09-12T01:01:37.158Z,20.2777777778
2018-09-12T01:01:49.581Z,20.2777777778
2018-09-12T01:02:02.000Z,20.2777777778
2018-09-12T01:02:14.398Z,20.2222222222
2018-09-12T01:02:26.802Z,20.2222222222
2018-09-12T01:02:39.232Z,20.2777777778
2018-09-12T01:02:51.638Z,20.2777777778
2018-09-12T01:03:04.047Z,20.2777777778
2018-09-12T01:03:16.595Z,20.2777777778
2018-09-12T01:03:29.008Z,20.2777777778
2018-09-12T01:03:41.686Z,20.2777777778
2018-09-12T01:03:54.089Z,20.2777777778
2018-09-12T01:04:06.509Z,20.2777777778
2018-09-12T01:04:19.055Z,20.2777777778
2018-09-12T01:04:31.472Z,20.2777777778
2018-09-12T01:04:43.937Z,20.2777777778
2018-09-12T01:04:56.411Z,20.2777777778
2018-09-12T01:05:08.826Z,20.2777777778
2018-09-12T01:05:21.237Z,20.2777777778
2018-09-12T01:05:33.630Z,20.2777777778
2018-09-12T01:05:46.032Z,20.2777777778
2018-09-12T01:05:58.455Z,20.2777777778
2018-09-12T01:06:10.877Z,20.2777777778
2018-09-12T01:06:23.326Z,20.2777777778
2018-09-12T01:06:35.715Z,20.2777777778
2018-09-12T01:06:48.104Z,20.2777777778
2018-09-12T01:07:00.525Z,20.2222222222
2018-09-12T01:07:12.933Z,20.2777777778
2018-09-12T01:07:25.381Z,20.2222222222
2018-09-12T01:07:37.785Z,20.2222222222
2018-09-12T01:07:50.210Z,20.2222222222
2018-09-12T01:08:02.600Z,20.2222222222
2018-09-12T01:08:15.018Z,20.2222222222
2018-09-12T01:08:27.440Z,20.2222222222
2018-09-12T01:08:39.856Z,20.2222222222
2018-09-12T01:08:52.279Z,20.2222222222
2018-09-12T01:09:04.738Z,20.2222222222
2018-09-12T01:09:17.198Z,20.2222222222
2018-09-12T01:09:29.649Z,20.2222222222
2018-09-12T01:09:42.049Z,20.2222222222
2018-09-12T01:09:54.451Z,20.2222222222
2018-09-12T01:10:06.860Z,20.2222222222
2018-09-12T01:10:19.571Z,20.2222222222
2018-09-12T01:10:31.984Z,20.2222222222
2018-09-12T01:10:44.366Z,20.2222222222
2018-09-12T01:10:56.750Z,20.2222222222
2018-09-12T01:11:09.193Z,20.2222222222
2018-09-12T01:11:21.583Z,20.2222222222
2018-09-12T01:11:33.999Z,20.2222222222
2018-09-12T01:11:46.555Z,20.2222222222
2018-09-12T01:11:59.096Z,20.2222222222
2018-09-12T01:12:11.512Z,20.2222222222
2018-09-12T01:12:23.922Z,20.2222222222
2018-09-12T01:12:36.371Z,20.2222222222
2018-09-12T01:12:48.787Z,20.1666666667
2018-09-12T01:13:01.211Z,20.1666666667
2018-09-12T01:13:13.626Z,20.1666666667
2018-09-12T01:13:26.021Z,20.1666666667
2018-09-12T01:13:38.427Z,20.1666666667
2018-09-12T01:13:50.878Z,20.1666666667
2018-09-12T01:14:03.304Z,20.1666666667
2018-09-12T01:14:15.728Z,20.1666666667
2018-09-12T01:14:28.125Z,20.1666666667
2018-09-12T01:14:40.541Z,20.1666666667
2018-09-12T01:14:52.961Z,20.1666666667
2018-09-12T01:15:05.642Z,20.1666666667
2018-09-12T01:15:18.050Z,20.1666666667
2018-09-12T01:15:30.461Z,20.1666666667
2018-09-12T01:15:42.878Z,20.1666666667
2018-09-12T01:15:55.276Z,20.1666666667
2018-09-12T01:16:07.671Z,20.1666666667
2018-09-12T01:16:20.054Z,20.1666666667
2018-09-12T01:16:32.467Z,20.1666666667
2018-09-12T01:16:44.941Z,20.1666666667
2018-09-12T01:16:57.345Z,20.1666666667
2018-09-12T01:17:09.765Z,20.1666666667
2018-09-12T01:17:22.215Z,20.1666666667
2018-09-12T01:17:34.624Z,20.1666666667
2018-09-12T01:17:47.121Z,20.1666666667
2018-09-12T01:17:59.508Z,20.1666666667
2018-09-12T01:18:11.957Z,20.1666666667
2018-09-12T01:18:24.364Z,20.1666666667
2018-09-12T01:18:36.833Z,20.1666666667
2018-09-12T01:18:49.238Z,20.1111111111
2018-09-12T01:19:01.643Z,20.1666666667
2018-09-12T01:19:14.052Z,20.1666666667
2018-09-12T01:19:26.480Z,20.1666666667
2018-09-12T01:19:38.876Z,20.1111111111
2018-09-12T01:19:51.286Z,20.1666666667
2018-09-12T01:20:03.692Z,20.1111111111
2018-09-12T01:20:16.105Z,20.1111111111
2018-09-12T01:20:28.534Z,20.1111111111
2018-09-12T01:20:40.937Z,20.1111111111
2018-09-12T01:20:53.356Z,20.1666666667
2018-09-12T01:21:05.909Z,20.1111111111
2018-09-12T01:21:18.335Z,20.1111111111
2018-09-12T01:21:30.761Z,20.1111111111
2018-09-12T01:21:43.166Z,20.1111111111
2018-09-12T01:21:55.552Z,20.1111111111
2018-09-12T01:22:07.972Z,20.1111111111
2018-09-12T01:22:20.383Z,20.0555555556
2018-09-12T01:22:32.792Z,20.0555555556
2018-09-12T01:22:45.186Z,20.0555555556
2018-09-12T01:22:57.595Z,20.0555555556
2018-09-12T01:23:10.110Z,20.1111111111
2018-09-12T01:23:22.505Z,20.1111111111
2018-09-12T01:23:34.923Z,20.0555555556
2018-09-12T01:23:47.340Z,20.0555555556
2018-09-12T01:23:59.838Z,20.0555555556
2018-09-12T01:24:12.240Z,20.0555555556
2018-09-12T01:24:24.633Z,20.0555555556
2018-09-12T01:24:37.032Z,20.0555555556
2018-09-12T01:24:49.443Z,20.0555555556
2018-09-12T01:25:01.852Z,20.0555555556
2018-09-12T01:25:14.256Z,20.0555555556
2018-09-12T01:25:26.663Z,20.0555555556
2018-09-12T01:25:39.322Z,20.0555555556
2018-09-12T01:25:51.730Z,20.0555555556
2018-09-12T01:26:04.158Z,20.0555555556
2018-09-12T01:26:16.588Z,20.0555555556
2018-09-12T01:26:28.985Z,20.0555555556
2018-09-12T01:26:41.396Z,20.0555555556
2018-09-12T01:26:53.790Z,20.0555555556
2018-09-12T01:27:06.205Z,20.0555555556
2018-09-12T01:27:18.634Z,20.0555555556
2018-09-12T01:27:31.055Z,20.0555555556
2018-09-12T01:27:43.471Z,20
2018-09-12T01:27:55.860Z,20
2018-09-12T01:28:08.273Z,20.0555555556
2018-09-12T01:28:20.678Z,20
2018-09-12T01:28:33.086Z,20
2018-09-12T01:28:45.474Z,20
2018-09-12T01:28:57.929Z,20
2018-09-12T01:29:10.333Z,20
2018-09-12T01:29:22.751Z,20
2018-09-12T01:29:35.156Z,20
2018-09-12T01:29:47.559Z,20
2018-09-12T01:29:59.965Z,20
2018-09-12T01:30:12.367Z,20
2018-09-12T01:30:24.825Z,19.9444444444
2018-09-12T01:30:37.220Z,20
2018-09-12T01:30:49.682Z,20
2018-09-12T01:31:02.104Z,19.9444444444
2018-09-12T01:31:14.517Z,19.9444444444
2018-09-12T01:31:26.914Z,20
2018-09-12T01:31:39.339Z,20
2018-09-12T01:31:51.995Z,20
2018-09-12T01:32:04.454Z,19.9444444444
2018-09-12T01:32:16.857Z,20
2018-09-12T01:32:29.238Z,19.9444444444
2018-09-12T01:32:41.642Z,19.9444444444
2018-09-12T01:32:54.041Z,19.9444444444
2018-09-12T01:33:06.443Z,19.9444444444
2018-09-12T01:33:18.853Z,19.9444444444
2018-09-12T01:33:31.267Z,19.9444444444
2018-09-12T01:33:43.682Z,19.9444444444
2018-09-12T01:33:56.089Z,19.9444444444
2018-09-12T01:34:08.490Z,19.9444444444
2018-09-12T01:34:20.896Z,19.9444444444
2018-09-12T01:34:33.305Z,19.9444444444
2018-09-12T01:34:45.717Z,19.9444444444
2018-09-12T01:34:58.154Z,19.9444444444
2018-09-12T01:35:10.549Z,19.9444444444
2018-09-12T01:35:22.980Z,19.9444444444
2018-09-12T01:35:35.378Z,19.9444444444
2018-09-12T01:35:47.785Z,19.9444444444
2018-09-12T01:36:00.191Z,19.9444444444
2018-09-12T01:36:12.597Z,19.9444444444
2018-09-12T01:36:25.016Z,19.9444444444
2018-09-12T01:36:37.423Z,19.9444444444
2018-09-12T01:36:49.837Z,19.9444444444
2018-09-12T01:37:02.283Z,19.8888888889
2018-09-12T01:37:14.690Z,19.8888888889
2018-09-12T01:37:27.271Z,19.9444444444
2018-09-12T01:37:39.675Z,19.9444444444
2018-09-12T01:37:52.097Z,19.8888888889
2018-09-12T01:38:04.502Z,19.8888888889
2018-09-12T01:38:16.972Z,19.8888888889
2018-09-12T01:38:29.384Z,19.8888888889
2018-09-12T01:38:41.793Z,19.8888888889
2018-09-12T01:38:54.193Z,19.8888888889
2018-09-12T01:39:06.626Z,19.8888888889
2018-09-12T01:39:19.047Z,19.8888888889
2018-09-12T01:39:31.447Z,19.8888888889
2018-09-12T01:39:43.855Z,19.8888888889
2018-09-12T01:39:56.259Z,19.8888888889
2018-09-12T01:40:08.666Z,19.8888888889
2018-09-12T01:40:21.061Z,19.8888888889
2018-09-12T01:40:33.513Z,19.8888888889
2018-09-12T01:40:45.973Z,19.8888888889
2018-09-12T01:40:58.370Z,19.8888888889
2018-09-12T01:41:10.768Z,19.8888888889
2018-09-12T01:41:23.154Z,19.8888888889
2018-09-12T01:41:35.555Z,19.8888888889
2018-09-12T01:41:47.940Z,19.8888888889
2018-09-12T01:42:00.327Z,19.8888888889
2018-09-12T01:42:12.730Z,19.8888888889
2018-09-12T01:42:25.142Z,19.8888888889
2018-09-12T01:42:37.553Z,19.8888888889
2018-09-12T01:42:50.058Z,19.8888888889
2018-09-12T01:43:02.455Z,19.8888888889
2018-09-12T01:43:14.857Z,19.8888888889
2018-09-12T01:43:27.244Z,19.8888888889
2018-09-12T01:43:39.641Z,19.8888888889
2018-09-12T01:43:52.039Z,19.8888888889
2018-09-12T01:44:04.444Z,19.8888888889
2018-09-12T01:44:16.878Z,19.8888888889
2018-09-12T01:44:29.288Z,19.8888888889
2018-09-12T01:44:41.721Z,19.8888888889
2018-09-12T01:44:54.125Z,19.8888888889
2018-09-12T01:45:06.525Z,19.8888888889
2018-09-12T01:45:18.935Z,19.8888888889
2018-09-12T01:45:31.326Z,19.8888888889
2018-09-12T01:45:43.734Z,19.8888888889
2018-09-12T01:45:56.161Z,19.8888888889
2018-09-12T01:46:08.572Z,19.8888888889
2018-09-12T01:46:20.988Z,19.8888888889
2018-09-12T01:46:33.398Z,19.8888888889
2018-09-12T01:46:45.825Z,19.8888888889
2018-09-12T01:46:58.221Z,19.8888888889
2018-09-12T01:47:10.654Z,19.8888888889
2018-09-12T01:47:23.077Z,19.8888888889
2018-09-12T01:47:35.501Z,19.8888888889
2018-09-12T01:47:47.931Z,19.8888888889
2018-09-12T01:48:00.394Z,19.8888888889
2018-09-12T01:48:12.790Z,19.8888888889
2018-09-12T01:48:25.221Z,19.8888888889
2018-09-12T01:48:37.619Z,19.8888888889
2018-09-12T01:48:50.020Z,19.8888888889
2018-09-12T01:49:02.445Z,19.8888888889
2018-09-12T01:49:14.977Z,19.8888888889
2018-09-12T01:49:27.462Z,19.8888888889
2018-09-12T01:49:39.886Z,19.8888888889
2018-09-12T01:49:52.291Z,19.8888888889
2018-09-12T01:50:04.694Z,19.8888888889
2018-09-12T01:50:17.102Z,19.8888888889
2018-09-12T01:50:29.510Z,19.8888888889
2018-09-12T01:50:41.929Z,19.8888888889
2018-09-12T01:50:54.542Z,19.8888888889
2018-09-12T01:51:06.938Z,19.8888888889
2018-09-12T01:51:19.355Z,19.8888888889
2018-09-12T01:51:31.751Z,19.8888888889
2018-09-12T01:51:44.147Z,19.8888888889
2018-09-12T01:51:56.598Z,19.8888888889
2018-09-12T01:52:09.024Z,19.8888888889
2018-09-12T01:52:21.439Z,19.8888888889
2018-09-12T01:52:33.877Z,19.8888888889
2018-09-12T01:52:46.297Z,19.8888888889
2018-09-12T01:52:58.731Z,19.8888888889
2018-09-12T01:53:11.383Z,19.8333333333
2018-09-12T01:53:23.802Z,19.8333333333
2018-09-12T01:53:36.319Z,19.8888888889
2018-09-12T01:53:48.747Z,19.8888888889
2018-09-12T01:54:01.151Z,19.8888888889
2018-09-12T01:54:13.542Z,19.8888888889
2018-09-12T01:54:25.993Z,19.8333333333
2018-09-12T01:54:38.417Z,19.8333333333
2018-09-12T01:54:50.821Z,19.8888888889
2018-09-12T01:55:03.276Z,19.8333333333
2018-09-12T01:55:15.684Z,19.8888888889
2018-09-12T01:55:28.099Z,19.8333333333
2018-09-12T01:55:40.510Z,19.8333333333
2018-09-12T01:55:53.047Z,19.8888888889
2018-09-12T01:56:05.452Z,19.8333333333
2018-09-12T01:56:17.850Z,19.8888888889
2018-09-12T01:56:30.261Z,19.8333333333
2018-09-12T01:56:42.765Z,19.8333333333
2018-09-12T01:56:55.159Z,19.8333333333
2018-09-12T01:57:07.559Z,19.8888888889
2018-09-12T01:57:19.963Z,19.8888888889
2018-09-12T01:57:32.402Z,19.8333333333
2018-09-12T01:57:44.800Z,19.8888888889
2018-09-12T01:57:57.206Z,19.8888888889
2018-09-12T01:58:09.643Z,19.8888888889
2018-09-12T01:58:22.047Z,19.8333333333
2018-09-12T01:58:34.495Z,19.8888888889
2018-09-12T01:58:46.901Z,19.8888888889
2018-09-12T01:58:59.313Z,19.8333333333
2018-09-12T01:59:11.719Z,19.8333333333
2018-09-12T01:59:24.143Z,19.8888888889
2018-09-12T01:59:36.554Z,19.8333333333
2018-09-12T01:59:48.969Z,19.8888888889
2018-09-12T02:00:01.393Z,19.8333333333
2018-09-12T02:00:13.827Z,19.8333333333
2018-09-12T02:00:26.294Z,19.8333333333
2018-09-12T02:00:38.719Z,19.8888888889
2018-09-12T02:00:51.140Z,19.8333333333
2018-09-12T02:01:03.590Z,19.8333333333
2018-09-12T02:01:15.999Z,19.8333333333
2018-09-12T02:01:28.419Z,19.8333333333
2018-09-12T02:01:40.867Z,19.8333333333
2018-09-12T02:01:53.272Z,19.8333333333
2018-09-12T02:02:05.697Z,19.8333333333
2018-09-12T02:02:18.097Z,19.8333333333
2018-09-12T02:02:30.517Z,19.8333333333
2018-09-12T02:02:42.925Z,19.8333333333
2018-09-12T02:02:55.364Z,19.7777777778
2018-09-12T02:03:07.784Z,19.8333333333
2018-09-12T02:03:20.423Z,19.8333333333
2018-09-12T02:03:32.858Z,19.8333333333
2018-09-12T02:03:45.663Z,19.8333333333
2018-09-12T02:03:58.101Z,19.8333333333
2018-09-12T02:04:10.524Z,19.8333333333
2018-09-12T02:04:22.935Z,19.8333333333
2018-09-12T02:04:35.426Z,19.8333333333
2018-09-12T02:04:47.830Z,19.8333333333
2018-09-12T02:05:00.234Z,19.8333333333
2018-09-12T02:05:12.640Z,19.8333333333
2018-09-12T02:05:25.048Z,19.8333333333
2018-09-12T02:05:37.462Z,19.8333333333
2018-09-12T02:05:49.919Z,19.7777777778
2018-09-12T02:06:02.320Z,19.8333333333
2018-09-12T02:06:14.721Z,19.7777777778
2018-09-12T02:06:27.134Z,19.7777777778
2018-09-12T02:06:39.539Z,19.7777777778
2018-09-12T02:06:51.933Z,19.7777777778
2018-09-12T02:07:04.342Z,19.8333333333
2018-09-12T02:07:16.744Z,19.7777777778
2018-09-12T02:07:29.148Z,19.8333333333
2018-09-12T02:07:41.580Z,19.7777777778
2018-09-12T02:07:53.982Z,19.8333333333
2018-09-12T02:08:06.392Z,19.7777777778
2018-09-12T02:08:18.803Z,19.8333333333
2018-09-12T02:08:31.218Z,19.8333333333
2018-09-12T02:08:43.652Z,19.8333333333
2018-09-12T02:08:56.060Z,19.8333333333
2018-09-12T02:09:08.462Z,19.8333333333
2018-09-12T02:09:20.869Z,19.8333333333
2018-09-12T02:09:33.252Z,19.8333333333
2018-09-12T02:09:45.660Z,19.8333333333
2018-09-12T02:09:58.070Z,19.8333333333